Time;durP1;ratioP1;P1;durP2;ratioP2;P2;SDS_P1;SDS_P2;PMS_P1;PMS_P2;Temp;Humidity;BMP_temperature;BMP_pressure;BME280_temperature;BME280_humidity;BME280_pressure;Samples;Min_cycle;Max_cycle;Signal;HPM_P1;HPM_P2
2023/11/05 00:02:18;;;;;;;9.17;3.10;;;11.10;1.00;;;;;;4974721;28;20440;-83
2023/11/05 00:04:44;;;;;;;7.00;2.73;;;11.20;1.00;;;;;;4974867;28;20231;-84
2023/11/05 00:07:10;;;;;;;7.00;2.43;;;11.20;1.00;;;;;;4977163;28;20617;-83
2023/11/05 00:09:35;;;;;;;8.07;2.60;;;11.10;1.00;;;;;;4972972;28;20185;-81
2023/11/05 00:12:01;;;;;;;10.00;2.40;;;11.10;1.00;;;;;;4959547;28;20203;-84
2023/11/05 00:14:26;;;;;;;9.73;3.70;;;11.10;1.00;;;;;;4975756;28;20328;-84
2023/11/05 00:16:52;;;;;;;6.07;2.40;;;11.10;1.00;;;;;;4974120;28;20693;-83
2023/11/05 00:19:17;;;;;;;3.30;1.50;;;11.10;1.00;;;;;;4974778;28;20551;-84
2023/11/05 00:21:44;;;;;;;2.90;1.53;;;11.00;1.00;;;;;;4978123;28;20176;-83
2023/11/05 00:24:10;;;;;;;7.03;2.30;;;11.00;14.90;;;;;;4956752;28;20180;-83
2023/11/05 00:26:35;;;;;;;10.30;2.50;;;11.00;40.40;;;;;;4977117;28;20480;-83
2023/11/05 00:29:01;;;;;;;11.03;2.33;;;11.00;93.50;;;;;;4975458;28;21056;-83
2023/11/05 00:31:26;;;;;;;5.10;1.80;;;11.00;99.90;;;;;;4973653;28;20195;-84
2023/11/05 00:33:52;;;;;;;7.47;1.80;;;11.10;99.90;;;;;;4976127;28;20196;-82
2023/11/05 00:36:17;;;;;;;6.97;1.93;;;11.00;99.90;;;;;;4976165;28;20225;-83
2023/11/05 00:38:43;;;;;;;6.57;2.00;;;11.00;99.90;;;;;;4960798;28;20187;-82
2023/11/05 00:41:08;;;;;;;8.90;2.10;;;11.00;99.90;;;;;;4971902;28;20178;-84
2023/11/05 00:43:34;;;;;;;8.30;1.90;;;10.90;1.00;;;;;;4977898;28;20197;-84
2023/11/05 00:46:00;;;;;;;15.70;2.60;;;10.80;1.00;;;;;;4978468;28;20227;-82
2023/11/05 00:48:25;;;;;;;11.47;2.40;;;10.80;1.00;;;;;;4975122;28;20181;-83
2023/11/05 00:50:51;;;;;;;6.50;2.13;;;10.80;1.00;;;;;;4973340;28;20243;-84
2023/11/05 00:53:16;;;;;;;6.60;1.60;;;10.70;1.00;;;;;;4974540;28;20189;-84
2023/11/05 00:55:42;;;;;;;8.33;1.70;;;10.70;1.00;;;;;;4974011;28;20263;-83
2023/11/05 00:58:07;;;;;;;4.77;2.03;;;10.70;1.00;;;;;;4974920;28;20192;-84
2023/11/05 01:00:33;;;;;;;11.60;1.93;;;10.60;1.00;;;;;;4972740;28;20189;-84
2023/11/05 01:02:58;;;;;;;9.50;2.77;;;10.60;1.00;;;;;;4972122;28;20208;-81
2023/11/05 01:05:24;;;;;;;9.17;2.07;;;10.60;1.00;;;;;;4973413;28;20822;-84
2023/11/05 01:07:49;;;;;;;6.10;1.83;;;10.50;1.00;;;;;;4956715;28;20224;-82
2023/11/05 01:10:15;;;;;;;6.03;1.73;;;10.50;1.00;;;;;;4974009;28;20540;-84
2023/11/05 01:12:40;;;;;;;8.33;1.50;;;10.50;1.00;;;;;;4961979;28;20187;-84
2023/11/05 01:15:06;;;;;;;11.57;1.93;;;10.40;1.00;;;;;;4974853;28;20188;-82
2023/11/05 01:17:32;;;;;;;9.07;2.83;;;10.40;1.00;;;;;;4970845;28;20216;-84
2023/11/05 01:19:57;;;;;;;11.80;2.53;;;10.30;1.00;;;;;;4969751;28;20467;-82
2023/11/05 01:22:23;;;;;;;9.50;2.33;;;10.30;3.70;;;;;;4972201;28;20188;-83
2023/11/05 01:24:49;;;;;;;19.00;2.10;;;10.30;5.80;;;;;;4974207;28;20656;-84
2023/11/05 01:27:14;;;;;;;10.40;2.23;;;10.20;14.90;;;;;;4973630;28;20945;-83
2023/11/05 01:29:40;;;;;;;9.00;2.50;;;10.20;20.10;;;;;;4974274;28;20444;-81
2023/11/05 01:32:07;;;;;;;7.17;2.57;;;10.10;24.90;;;;;;4978183;28;20185;-83
2023/11/05 01:34:33;;;;;;;14.63;2.50;;;10.10;28.00;;;;;;4974041;28;20199;-84
2023/11/05 01:36:58;;;;;;;10.37;2.10;;;10.10;31.10;;;;;;4974906;28;20546;-84
2023/11/05 01:39:25;;;;;;;8.50;2.03;;;10.10;28.10;;;;;;4971802;28;20463;-84
2023/11/05 01:41:50;;;;;;;9.70;1.83;;;10.10;28.40;;;;;;4975861;28;20456;-84
2023/11/05 01:44:16;;;;;;;5.37;1.67;;;10.10;29.90;;;;;;4970423;28;20628;-83
2023/11/05 01:46:42;;;;;;;7.00;1.90;;;10.10;30.00;;;;;;4974707;28;20267;-83
2023/11/05 01:49:08;;;;;;;7.47;2.03;;;10.10;32.90;;;;;;4975373;28;20578;-82
2023/11/05 01:51:33;;;;;;;4.87;1.50;;;10.10;27.10;;;;;;4974671;28;20436;-85
2023/11/05 01:53:59;;;;;;;6.60;1.60;;;10.20;34.70;;;;;;4971001;28;20215;-84
2023/11/05 01:56:27;;;;;;;9.10;1.80;;;10.20;34.70;;;;;;4975460;28;20211;-82
2023/11/05 01:58:54;;;;;;;5.80;1.83;;;10.20;28.00;;;;;;4970466;28;20854;-84
2023/11/05 02:01:20;;;;;;;13.37;2.23;;;10.30;31.90;;;;;;4952662;28;20498;-82
2023/11/05 02:03:46;;;;;;;8.27;1.77;;;10.30;36.00;;;;;;4967055;28;20448;-84
2023/11/05 02:06:15;;;;;;;4.73;1.27;;;10.30;27.10;;;;;;4954267;28;20502;-81
2023/11/05 02:08:41;;;;;;;7.80;1.10;;;10.30;29.20;;;;;;4971134;28;21080;-83
2023/11/05 02:11:08;;;;;;;7.50;1.87;;;10.30;30.80;;;;;;4953277;28;20490;-84
2023/11/05 02:13:51;;;;;;;5.10;1.43;;;10.40;27.10;;;;;;4971629;28;24960;-83
2023/11/05 02:16:18;;;;;;;8.30;2.23;;;10.30;30.90;;;;;;4953675;28;20475;-83
2023/11/05 02:18:44;;;;;;;3.17;1.63;;;10.40;28.50;;;;;;4965475;28;20443;-83
2023/11/05 02:21:12;;;;;;;6.30;1.43;;;10.40;29.10;;;;;;4970251;28;20942;-82
2023/11/05 02:23:37;;;;;;;7.07;1.70;;;10.40;32.20;;;;;;4966403;28;20196;-82
2023/11/05 02:26:03;;;;;;;6.63;1.63;;;10.50;34.10;;;;;;4969230;28;20741;-84
2023/11/05 02:28:33;;;;;;;5.80;1.40;;;10.40;30.00;;;;;;4970668;28;20675;-83
2023/11/05 02:30:59;;;;;;;8.50;1.50;;;10.50;20.90;;;;;;4951591;28;20211;-83
2023/11/05 02:33:25;;;;;;;8.17;1.40;;;10.50;21.10;;;;;;4969247;28;20726;-84
2023/11/05 02:35:50;;;;;;;3.77;1.00;;;10.50;25.70;;;;;;4964182;28;20208;-82
2023/11/05 02:38:16;;;;;;;4.13;1.00;;;10.50;23.00;;;;;;4969559;28;20559;-84
2023/11/05 02:40:41;;;;;;;3.20;1.40;;;10.60;17.60;;;;;;4971639;28;20195;-84
2023/11/05 02:43:07;;;;;;;4.20;1.30;;;10.60;21.10;;;;;;4970461;28;20201;-82
2023/11/05 02:45:32;;;;;;;2.97;1.10;;;10.60;15.30;;;;;;4967212;28;20216;-82
2023/11/05 02:47:58;;;;;;;2.33;1.50;;;10.60;19.00;;;;;;4971906;28;20193;-82
2023/11/05 02:50:23;;;;;;;4.90;1.53;;;10.60;15.60;;;;;;4967976;28;20193;-84
2023/11/05 02:52:49;;;;;;;5.00;1.20;;;10.70;16.40;;;;;;4968977;28;20263;-85
2023/11/05 02:55:15;;;;;;;1.70;0.87;;;10.70;11.20;;;;;;4966504;28;20188;-83
2023/11/05 02:57:40;;;;;;;3.50;1.03;;;10.70;10.00;;;;;;4966907;28;20189;-82
2023/11/05 03:00:07;;;;;;;2.63;0.90;;;10.70;1.00;;;;;;4952832;28;20591;-83
2023/11/05 03:02:35;;;;;;;2.80;0.90;;;10.80;1.00;;;;;;4968772;28;20658;-81
2023/11/05 03:05:01;;;;;;;3.67;0.70;;;10.80;1.00;;;;;;4968717;28;20463;-82
2023/11/05 03:07:28;;;;;;;5.57;1.00;;;10.80;1.00;;;;;;4967340;28;20460;-83
2023/11/05 03:09:53;;;;;;;1.80;1.47;;;10.80;1.00;;;;;;4971136;28;20450;-83
2023/11/05 03:12:19;;;;;;;2.43;0.90;;;10.90;1.00;;;;;;4970006;28;20189;-83
2023/11/05 03:14:45;;;;;;;3.03;0.80;;;10.90;1.00;;;;;;4972812;28;20682;-83
2023/11/05 03:17:10;;;;;;;2.30;0.80;;;10.90;1.00;;;;;;4967973;28;20224;-83
2023/11/05 03:19:35;;;;;;;2.40;0.90;;;10.90;1.00;;;;;;4973043;28;20193;-83
2023/11/05 03:22:01;;;;;;;2.30;0.90;;;10.90;1.00;;;;;;4971543;28;20196;-84
2023/11/05 03:24:27;;;;;;;4.30;0.80;;;10.90;1.00;;;;;;4972625;28;20189;-84
2023/11/05 03:26:53;;;;;;;3.63;1.27;;;11.00;1.00;;;;;;4975552;28;20468;-84
2023/11/05 03:29:19;;;;;;;4.10;0.70;;;11.00;1.00;;;;;;4974430;28;20183;-84
2023/11/05 03:31:48;;;;;;;2.57;0.87;;;11.00;1.00;;;;;;4976526;28;20483;-84
2023/11/05 03:34:13;;;;;;;1.27;0.70;;;11.00;1.00;;;;;;4958290;28;20297;-84
2023/11/05 03:36:39;;;;;;;1.30;0.60;;;11.00;1.00;;;;;;4975984;28;20966;-84
2023/11/05 03:39:04;;;;;;;2.33;1.03;;;11.10;1.00;;;;;;4974544;28;20192;-84
2023/11/05 03:41:30;;;;;;;2.70;0.87;;;11.10;1.00;;;;;;4959446;28;20729;-83
2023/11/05 03:43:55;;;;;;;4.73;0.60;;;11.10;1.00;;;;;;4972864;28;20189;-83
2023/11/05 03:46:22;;;;;;;4.53;0.70;;;11.00;1.00;;;;;;4974096;28;20208;-84
2023/11/05 03:48:47;;;;;;;2.70;0.63;;;11.00;1.00;;;;;;4975511;28;20185;-83
2023/11/05 03:51:14;;;;;;;3.57;0.70;;;11.00;1.00;;;;;;4975049;28;20502;-81
2023/11/05 03:53:40;;;;;;;1.27;0.70;;;10.90;1.00;;;;;;4956705;28;20192;-84
2023/11/05 03:56:06;;;;;;;1.10;0.70;;;10.90;1.00;;;;;;4956997;28;20521;-84
2023/11/05 03:58:31;;;;;;;1.23;0.60;;;10.90;1.00;;;;;;4975549;28;20784;-85
2023/11/05 04:00:58;;;;;;;1.57;0.70;;;10.90;1.00;;;;;;4974232;28;20445;-85
2023/11/05 04:03:23;;;;;;;1.37;0.70;;;10.90;1.00;;;;;;4976095;28;20239;-83
2023/11/05 04:05:50;;;;;;;5.00;0.80;;;10.90;1.00;;;;;;4974114;28;20476;-83
2023/11/05 04:08:16;;;;;;;3.40;1.37;;;10.90;1.00;;;;;;4973041;28;20195;-84
2023/11/05 04:10:41;;;;;;;3.40;0.83;;;11.00;1.00;;;;;;4971665;28;20507;-84
2023/11/05 04:13:07;;;;;;;2.43;0.60;;;11.00;1.00;;;;;;4972120;28;20185;-84
2023/11/05 04:15:32;;;;;;;2.93;0.90;;;11.10;1.00;;;;;;4966058;28;20296;-84
2023/11/05 04:17:58;;;;;;;1.63;0.80;;;11.10;1.00;;;;;;4970787;28;20185;-84
2023/11/05 04:20:23;;;;;;;6.43;0.97;;;11.10;1.00;;;;;;4972376;28;20184;-83
2023/11/05 04:22:49;;;;;;;3.67;0.90;;;11.10;1.00;;;;;;4973173;28;20192;-84
2023/11/05 04:25:15;;;;;;;6.30;0.90;;;11.10;1.00;;;;;;4976057;28;20250;-82
2023/11/05 04:27:40;;;;;;;2.80;1.00;;;11.10;1.00;;;;;;4974635;28;20531;-84
2023/11/05 04:30:06;;;;;;;3.43;0.87;;;11.10;1.00;;;;;;4973405;28;20185;-83
2023/11/05 04:32:32;;;;;;;9.77;1.80;;;11.10;1.00;;;;;;4974907;28;20197;-85
2023/11/05 04:34:57;;;;;;;3.00;0.80;;;11.10;1.00;;;;;;4975768;28;20447;-84
2023/11/05 04:37:23;;;;;;;3.33;1.00;;;11.00;1.00;;;;;;4971229;28;20216;-84
2023/11/05 04:39:48;;;;;;;3.00;1.00;;;11.10;1.00;;;;;;4975418;28;20254;-84
2023/11/05 04:42:14;;;;;;;5.50;1.67;;;11.00;1.00;;;;;;4977468;28;20217;-84
2023/11/05 04:44:39;;;;;;;2.27;0.97;;;11.00;1.00;;;;;;4974999;28;20232;-84
2023/11/05 04:47:05;;;;;;;2.60;0.90;;;11.00;1.00;;;;;;4976843;28;20208;-84
2023/11/05 04:49:31;;;;;;;6.73;1.00;;;11.00;1.00;;;;;;4977623;28;20181;-84
2023/11/05 04:51:57;;;;;;;4.10;1.40;;;11.00;1.00;;;;;;4974336;28;20184;-84
2023/11/05 04:54:23;;;;;;;3.20;0.90;;;11.00;1.00;;;;;;4970780;28;20432;-83
2023/11/05 04:56:48;;;;;;;3.07;0.87;;;11.00;1.00;;;;;;4968475;28;21124;-81
2023/11/05 04:59:14;;;;;;;3.80;1.10;;;11.00;1.00;;;;;;4968938;28;20436;-83
2023/11/05 05:01:39;;;;;;;6.00;1.13;;;10.90;1.00;;;;;;4967152;28;20591;-80
2023/11/05 05:04:05;;;;;;;4.30;1.00;;;10.90;1.00;;;;;;4968660;28;20583;-82
2023/11/05 05:06:31;;;;;;;4.63;1.80;;;10.90;1.00;;;;;;4970465;28;20220;-83
2023/11/05 05:08:56;;;;;;;5.50;1.57;;;10.90;1.00;;;;;;4967856;28;20189;-81
2023/11/05 05:11:22;;;;;;;4.40;1.27;;;10.90;1.00;;;;;;4971620;28;20229;-83
2023/11/05 05:13:47;;;;;;;3.93;1.20;;;10.90;1.00;;;;;;4953126;28;20285;-81
2023/11/05 05:16:17;;;;;;;3.60;0.90;;;10.90;1.00;;;;;;4966351;28;20234;-83
2023/11/05 05:18:43;;;;;;;4.40;1.53;;;10.90;1.00;;;;;;4969039;28;20189;-83
2023/11/05 05:21:08;;;;;;;4.23;1.20;;;10.90;1.00;;;;;;4969168;28;20448;-82
2023/11/05 05:23:34;;;;;;;2.00;0.73;;;11.00;1.00;;;;;;4971092;28;20188;-82
2023/11/05 05:25:59;;;;;;;2.80;1.10;;;11.00;1.00;;;;;;4970280;28;20710;-84
2023/11/05 05:28:25;;;;;;;3.47;1.23;;;10.90;1.00;;;;;;4970004;28;20199;-83
2023/11/05 05:30:50;;;;;;;3.00;0.87;;;11.00;1.00;;;;;;4969164;28;20189;-83
2023/11/05 05:33:16;;;;;;;3.17;0.70;;;11.00;1.00;;;;;;4963769;28;20560;-84
2023/11/05 05:35:41;;;;;;;1.60;0.73;;;11.00;1.00;;;;;;4967747;28;20705;-81
2023/11/05 05:38:07;;;;;;;2.50;0.70;;;11.00;1.00;;;;;;4969990;28;20192;-83
2023/11/05 05:40:32;;;;;;;1.83;0.93;;;11.00;1.00;;;;;;4969270;28;20612;-81
2023/11/05 05:42:58;;;;;;;3.40;0.67;;;11.00;1.00;;;;;;4952330;28;20191;-82
2023/11/05 05:45:24;;;;;;;1.73;0.60;;;11.00;1.00;;;;;;4967929;28;20215;-82
2023/11/05 05:47:49;;;;;;;2.33;0.80;;;11.00;1.00;;;;;;4955043;28;20874;-82
2023/11/05 05:50:15;;;;;;;2.50;0.80;;;11.00;1.00;;;;;;4970118;28;20666;-83
2023/11/05 05:52:41;;;;;;;1.40;0.60;;;11.00;1.00;;;;;;4971473;28;20196;-83
2023/11/05 05:55:10;;;;;;;2.50;0.60;;;11.00;1.00;;;;;;4964287;28;20440;-84
2023/11/05 05:57:36;;;;;;;1.10;0.60;;;11.00;1.00;;;;;;4969310;28;20215;-84
2023/11/05 06:00:04;;;;;;;3.87;0.80;;;11.00;1.00;;;;;;4952818;28;20447;-83
2023/11/05 06:02:30;;;;;;;1.97;0.70;;;11.00;1.00;;;;;;4970713;28;20446;-84
2023/11/05 06:04:55;;;;;;;1.70;0.60;;;11.00;1.00;;;;;;4969241;28;20467;-81
2023/11/05 06:07:21;;;;;;;1.43;0.70;;;11.00;1.00;;;;;;4966543;28;20322;-82
2023/11/05 06:09:48;;;;;;;2.10;0.57;;;11.00;1.00;;;;;;4972921;28;20612;-84
2023/11/05 06:12:13;;;;;;;3.00;0.60;;;11.00;1.00;;;;;;4972417;28;20811;-80
2023/11/05 06:14:39;;;;;;;2.17;0.60;;;11.00;1.00;;;;;;4971968;28;20440;-83
2023/11/05 06:17:04;;;;;;;1.20;0.53;;;11.00;1.00;;;;;;4972763;28;20228;-84
2023/11/05 06:19:30;;;;;;;2.80;0.50;;;11.00;1.00;;;;;;4973640;28;20700;-84
2023/11/05 06:21:55;;;;;;;0.90;0.63;;;11.00;1.00;;;;;;4970460;28;20240;-84
2023/11/05 06:24:21;;;;;;;1.93;0.60;;;11.00;1.00;;;;;;4976383;28;20248;-81
2023/11/05 06:26:46;;;;;;;1.87;0.60;;;11.00;1.00;;;;;;4976220;28;20271;-82
2023/11/05 06:29:12;;;;;;;1.20;0.70;;;11.00;1.00;;;;;;4976508;28;20195;-84
2023/11/05 06:31:37;;;;;;;1.10;0.60;;;11.00;1.00;;;;;;4977664;28;20734;-84
2023/11/05 06:34:03;;;;;;;0.90;0.60;;;11.00;1.00;;;;;;4975067;28;20181;-84
2023/11/05 06:36:30;;;;;;;3.20;0.60;;;11.00;1.00;;;;;;4974805;28;20208;-85
2023/11/05 06:38:55;;;;;;;4.30;1.60;;;11.00;1.00;;;;;;4977846;28;20196;-84
2023/11/05 06:41:21;;;;;;;2.93;0.63;;;11.00;1.00;;;;;;4976551;28;20435;-84
2023/11/05 06:43:47;;;;;;;10.70;0.90;;;11.00;1.00;;;;;;4975119;28;20188;-82
2023/11/05 06:46:12;;;;;;;2.43;1.00;;;11.00;1.00;;;;;;4977066;28;20486;-84
2023/11/05 06:48:38;;;;;;;3.33;0.60;;;10.90;3.90;;;;;;4976882;28;20200;-85
2023/11/05 06:51:04;;;;;;;2.57;0.63;;;10.90;13.40;;;;;;4976427;28;20208;-84
2023/11/05 06:53:30;;;;;;;1.77;0.60;;;10.90;16.50;;;;;;4977550;28;20185;-83
2023/11/05 06:55:55;;;;;;;1.10;0.60;;;10.80;22.70;;;;;;4975223;28;20467;-81
2023/11/05 06:58:21;;;;;;;1.10;0.73;;;10.80;26.30;;;;;;4976069;28;20278;-83
2023/11/05 07:00:47;;;;;;;1.47;0.70;;;10.90;28.90;;;;;;4975248;28;20215;-83
2023/11/05 07:03:12;;;;;;;1.00;0.60;;;10.80;30.60;;;;;;4959580;28;20216;-83
2023/11/05 07:05:39;;;;;;;1.97;0.63;;;10.90;35.30;;;;;;4956200;28;20223;-85
2023/11/05 07:08:05;;;;;;;2.67;0.83;;;11.00;34.30;;;;;;4977387;28;20196;-82
2023/11/05 07:10:30;;;;;;;1.10;0.70;;;11.00;32.30;;;;;;4976945;28;21028;-84
2023/11/05 07:12:56;;;;;;;1.30;0.60;;;11.00;29.30;;;;;;4977422;28;20447;-83
2023/11/05 07:15:24;;;;;;;3.33;0.60;;;11.10;29.60;;;;;;4975614;28;20199;-83
2023/11/05 07:17:50;;;;;;;1.17;0.50;;;11.10;26.60;;;;;;4974743;28;20189;-82
2023/11/05 07:20:18;;;;;;;4.20;0.80;;;11.10;21.90;;;;;;4974971;28;20442;-84
2023/11/05 07:22:46;;;;;;;3.23;1.30;;;11.10;21.00;;;;;;4977255;28;20467;-84
2023/11/05 07:25:12;;;;;;;1.40;0.70;;;11.10;20.60;;;;;;4960148;28;20472;-85
2023/11/05 07:27:38;;;;;;;1.40;0.90;;;11.10;20.90;;;;;;4959387;28;20452;-83
2023/11/05 07:30:10;;;;;;;1.50;0.87;;;11.20;22.50;;;;;;4975703;28;20264;-83
2023/11/05 07:32:35;;;;;;;1.23;0.70;;;11.30;19.70;;;;;;4973912;28;20440;-84
2023/11/05 07:35:01;;;;;;;1.10;0.80;;;11.50;12.90;;;;;;4972027;28;21411;-82
2023/11/05 07:37:29;;;;;;;2.80;1.20;;;11.90;6.50;;;;;;4953029;28;20212;-83
2023/11/05 07:39:55;;;;;;;2.20;1.20;;;12.20;1.00;;;;;;4955951;28;20997;-84
2023/11/05 07:42:21;;;;;;;4.40;1.97;;;12.30;1.00;;;;;;4973271;28;20519;-82
2023/11/05 07:44:46;;;;;;;3.40;1.90;;;12.40;1.00;;;;;;4972947;28;20698;-83
2023/11/05 07:47:12;;;;;;;1.70;1.10;;;12.40;1.00;;;;;;4972124;28;20470;-84
2023/11/05 07:49:37;;;;;;;2.30;1.10;;;12.30;1.00;;;;;;4973462;28;20189;-84
2023/11/05 07:52:03;;;;;;;1.40;1.00;;;12.20;1.00;;;;;;4973808;28;20281;-83
2023/11/05 07:54:30;;;;;;;1.53;0.70;;;12.20;1.00;;;;;;4973845;28;20185;-83
2023/11/05 07:56:56;;;;;;;1.83;0.80;;;12.10;1.00;;;;;;4972649;28;20537;-84
2023/11/05 07:59:21;;;;;;;1.30;0.80;;;12.10;1.00;;;;;;4973897;28;20495;-83
2023/11/05 08:01:47;;;;;;;1.40;0.77;;;12.20;1.00;;;;;;4969689;28;20271;-83
2023/11/05 08:04:12;;;;;;;1.90;0.70;;;12.20;1.00;;;;;;4972094;28;20698;-81
2023/11/05 08:06:38;;;;;;;2.47;0.70;;;12.20;1.00;;;;;;4971512;28;20228;-83
2023/11/05 08:09:04;;;;;;;2.60;0.90;;;12.20;1.00;;;;;;4972457;28;20240;-83
2023/11/05 08:11:29;;;;;;;4.37;0.77;;;12.20;1.00;;;;;;4973329;28;20524;-81
2023/11/05 08:13:55;;;;;;;1.57;0.93;;;12.30;1.00;;;;;;4970016;28;20198;-81
2023/11/05 08:16:20;;;;;;;2.10;0.90;;;12.40;1.00;;;;;;4971727;28;20217;-82
2023/11/05 08:18:46;;;;;;;3.20;0.70;;;12.70;1.00;;;;;;4972010;28;20690;-83
2023/11/05 08:21:11;;;;;;;2.60;0.90;;;14.90;1.00;;;;;;4973648;28;20252;-82
2023/11/05 08:23:37;;;;;;;1.73;0.70;;;16.10;99.90;;;;;;4973804;28;20215;-82
2023/11/05 08:26:03;;;;;;;2.00;0.70;;;16.30;99.90;;;;;;4972781;28;20255;-83
2023/11/05 08:28:28;;;;;;;3.90;1.40;;;16.10;1.00;;;;;;4973132;28;20181;-84
2023/11/05 08:30:54;;;;;;;1.97;0.93;;;16.20;1.00;;;;;;4972270;28;20448;-84
2023/11/05 08:33:20;;;;;;;4.53;1.40;;;16.30;99.90;;;;;;4969254;28;20180;-84
2023/11/05 08:35:46;;;;;;;2.40;0.90;;;16.70;19.30;;;;;;4968797;28;20262;-85
2023/11/05 08:38:12;;;;;;;2.23;1.07;;;17.00;99.90;;;;;;4969622;28;20440;-84
2023/11/05 08:40:37;;;;;;;7.10;1.57;;;17.20;99.90;;;;;;4970114;28;20451;-84
2023/11/05 08:43:04;;;;;;;1.50;0.93;;;17.90;99.90;;;;;;4971265;28;20185;-83
2023/11/05 08:45:29;;;;;;;4.50;0.80;;;17.60;1.00;;;;;;4969625;28;20263;-80
2023/11/05 08:47:56;;;;;;;4.47;0.97;;;17.40;1.00;;;;;;4969083;28;20483;-85
2023/11/05 08:50:25;;;;;;;3.50;1.00;;;17.00;1.00;;;;;;4950949;28;20177;-83
2023/11/05 08:52:51;;;;;;;2.70;0.93;;;16.60;14.10;;;;;;4970238;28;20443;-85
2023/11/05 08:55:16;;;;;;;2.13;0.87;;;16.10;99.90;;;;;;4970182;28;20447;-83
2023/11/05 08:57:42;;;;;;;3.03;1.00;;;15.70;99.90;;;;;;4970133;28;20196;-81
2023/11/05 09:00:11;;;;;;;3.73;1.00;;;15.30;1.00;;;;;;4964608;28;20235;-83
2023/11/05 09:02:36;;;;;;;2.53;1.00;;;15.10;99.90;;;;;;4967923;28;20189;-84
2023/11/05 09:05:02;;;;;;;7.47;1.43;;;14.90;99.90;;;;;;4967655;28;20479;-83
2023/11/05 09:07:28;;;;;;;2.70;0.80;;;14.70;99.90;;;;;;4965671;28;20569;-84
2023/11/05 09:09:53;;;;;;;1.47;0.83;;;14.40;1.00;;;;;;4970225;28;20571;-83
2023/11/05 09:12:19;;;;;;;1.60;0.80;;;14.30;1.00;;;;;;4955236;28;20204;-84
2023/11/05 09:14:44;;;;;;;1.23;0.70;;;14.40;99.90;;;;;;4968723;28;20196;-82
2023/11/05 09:17:10;;;;;;;2.43;1.43;;;14.50;99.90;;;;;;4970091;28;20331;-85
2023/11/05 09:19:35;;;;;;;1.83;0.97;;;14.50;1.00;;;;;;4953425;28;20180;-84
2023/11/05 09:22:01;;;;;;;3.43;0.80;;;14.40;99.90;;;;;;4970432;28;20188;-85
2023/11/05 09:24:30;;;;;;;1.80;1.10;;;14.30;99.90;;;;;;4971446;28;20206;-82
2023/11/05 09:26:55;;;;;;;1.93;0.80;;;14.30;1.00;;;;;;4969908;28;20784;-83
2023/11/05 09:29:21;;;;;;;2.33;0.90;;;14.10;99.90;;;;;;4971360;28;20480;-83
2023/11/05 09:31:47;;;;;;;3.33;1.10;;;13.90;99.90;;;;;;4972449;28;20279;-84
2023/11/05 09:34:14;;;;;;;3.10;1.00;;;13.80;1.00;;;;;;4970689;28;20269;-83
2023/11/05 09:36:39;;;;;;;2.17;1.00;;;13.60;1.00;;;;;;4969085;28;20486;-83
2023/11/05 09:39:07;;;;;;;1.53;1.20;;;13.50;1.00;;;;;;4968376;28;20439;-81
2023/11/05 09:41:34;;;;;;;3.20;0.90;;;13.40;99.90;;;;;;4968252;28;20184;-83
2023/11/05 09:44:00;;;;;;;2.23;1.10;;;13.20;99.90;;;;;;4973128;28;20444;-84
2023/11/05 09:46:26;;;;;;;2.13;1.10;;;13.10;1.00;;;;;;4950821;28;20558;-83
2023/11/05 09:48:51;;;;;;;1.90;0.97;;;13.00;1.00;;;;;;4972790;28;20721;-85
2023/11/05 09:51:17;;;;;;;2.30;1.03;;;13.00;1.00;;;;;;4970349;28;20192;-82
2023/11/05 09:53:43;;;;;;;2.50;1.00;;;12.90;1.00;;;;;;4971209;28;20537;-84
2023/11/05 09:56:09;;;;;;;2.83;1.40;;;12.90;1.00;;;;;;4973378;28;20657;-84
2023/11/05 09:58:35;;;;;;;3.23;1.10;;;12.90;1.00;;;;;;4971269;28;20436;-84
2023/11/05 10:01:04;;;;;;;2.70;1.30;;;13.10;1.00;;;;;;4970178;28;20467;-84
2023/11/05 10:03:30;;;;;;;2.80;1.10;;;13.30;99.90;;;;;;4972504;28;20192;-83
2023/11/05 10:05:56;;;;;;;2.40;1.17;;;13.50;99.90;;;;;;4972793;28;20919;-85
2023/11/05 10:08:23;;;;;;;4.47;1.20;;;13.70;99.90;;;;;;4971279;28;20191;-83
2023/11/05 10:10:48;;;;;;;1.80;1.17;;;14.10;21.60;;;;;;4969742;28;20185;-84
2023/11/05 10:13:15;;;;;;;4.00;1.63;;;14.50;99.90;;;;;;4974576;28;20455;-84
2023/11/05 10:15:42;;;;;;;2.50;0.97;;;14.90;99.90;;;;;;4975106;28;20229;-84
2023/11/05 10:18:16;;;;;;;1.83;1.33;;;15.10;1.00;;;;;;4973466;28;20479;-85
2023/11/05 10:20:53;;;;;;;3.10;1.50;;;15.60;99.90;;;;;;4967470;28;20986;-83
2023/11/05 10:23:19;;;;;;;4.30;1.40;;;15.60;99.90;;;;;;4976097;28;20604;-83
2023/11/05 10:25:50;;;;;;;2.03;1.17;;;15.40;99.90;;;;;;4976090;28;20472;-84
2023/11/05 10:28:19;;;;;;;4.10;1.30;;;15.20;1.00;;;;;;4975161;28;20444;-84
2023/11/05 10:30:54;;;;;;;1.90;1.17;;;15.10;1.00;;;;;;4974468;28;20934;-84
2023/11/05 10:33:19;;;;;;;1.57;1.00;;;15.10;99.90;;;;;;4975294;28;20440;-84
2023/11/05 10:35:45;;;;;;;2.20;1.20;;;14.70;1.00;;;;;;4973255;28;20468;-85
2023/11/05 10:38:18;;;;;;;5.73;1.80;;;14.40;1.00;;;;;;4958942;28;20690;-84
2023/11/05 10:40:47;;;;;;;7.63;1.60;;;14.10;1.00;;;;;;4962748;28;20197;-84
2023/11/05 10:43:14;;;;;;;3.43;1.30;;;13.80;99.90;;;;;;4955612;28;20458;-84
2023/11/05 10:45:40;;;;;;;5.47;1.50;;;13.60;1.00;;;;;;4975529;28;20479;-83
2023/11/05 10:48:09;;;;;;;2.80;1.60;;;13.50;99.90;;;;;;4975838;28;20459;-84
2023/11/05 10:50:35;;;;;;;3.30;1.20;;;13.30;99.90;;;;;;4953976;28;20452;-85
2023/11/05 10:53:05;;;;;;;3.00;1.70;;;13.30;99.90;;;;;;4975531;28;20486;-85
2023/11/05 10:55:38;;;;;;;2.23;1.40;;;13.30;99.90;;;;;;4954975;28;20637;-84
2023/11/05 10:58:08;;;;;;;3.40;1.80;;;13.30;99.90;;;;;;4974189;28;20448;-84
2023/11/05 11:00:34;;;;;;;1.93;1.50;;;13.30;99.90;;;;;;4973761;28;20829;-84
2023/11/05 11:03:03;;;;;;;6.83;2.07;;;13.20;99.90;;;;;;4974438;28;20539;-84
2023/11/05 11:05:43;;;;;;;2.30;1.73;;;13.20;99.90;;;;;;4955189;28;20870;-84
2023/11/05 11:08:10;;;;;;;4.60;1.97;;;13.20;99.90;;;;;;4974152;28;20436;-83
2023/11/05 11:10:41;;;;;;;5.17;1.57;;;13.10;99.90;;;;;;4958166;28;20463;-85
2023/11/05 11:13:14;;;;;;;3.23;1.77;;;13.10;99.90;;;;;;4970725;28;20436;-84
2023/11/05 11:15:41;;;;;;;3.73;2.03;;;13.00;1.00;;;;;;4969897;28;20499;-84
2023/11/05 11:18:19;;;;;;;2.90;1.73;;;12.90;1.00;;;;;;4968994;28;20448;-85
2023/11/05 11:20:47;;;;;;;4.00;2.20;;;12.70;1.00;;;;;;4972682;28;20443;-85
2023/11/05 11:23:16;;;;;;;6.70;2.20;;;12.60;1.00;;;;;;4973014;28;20499;-85
2023/11/05 11:26:01;;;;;;;4.57;2.23;;;12.60;1.00;;;;;;4974667;28;20472;-84
2023/11/05 11:28:32;;;;;;;3.70;2.17;;;12.70;1.00;;;;;;4972493;28;20450;-85
2023/11/05 11:30:58;;;;;;;4.97;2.00;;;12.90;1.00;;;;;;4970916;28;20443;-84
2023/11/05 11:33:25;;;;;;;3.70;2.63;;;13.10;1.00;;;;;;4973150;28;21025;-84
2023/11/05 11:35:51;;;;;;;4.03;2.20;;;13.10;99.90;;;;;;4972824;28;20526;-85
2023/11/05 11:38:17;;;;;;;3.60;2.47;;;13.20;99.90;;;;;;4974663;28;20524;-84
2023/11/05 11:40:57;;;;;;;5.20;2.67;;;13.30;99.90;;;;;;4955689;28;20550;-86
2023/11/05 11:43:23;;;;;;;6.67;2.57;;;13.30;99.90;;;;;;4973215;28;20448;-83
2023/11/05 11:45:49;;;;;;;7.40;2.47;;;13.20;99.90;;;;;;4974878;28;20486;-84
2023/11/05 11:48:15;;;;;;;9.03;3.17;;;13.20;99.90;;;;;;4974207;28;20809;-84
2023/11/05 11:50:54;;;;;;;9.07;2.90;;;13.20;99.90;;;;;;4970099;28;20440;-85
2023/11/05 11:53:37;;;;;;;3.80;2.73;;;13.10;99.90;;;;;;4971364;28;20436;-84
2023/11/05 11:56:03;;;;;;;6.83;3.07;;;12.90;99.90;;;;;;4972815;28;21008;-85
2023/11/05 11:58:29;;;;;;;6.47;2.67;;;12.70;1.00;;;;;;4973511;28;20444;-84
2023/11/05 12:00:57;;;;;;;4.80;2.90;;;12.60;1.00;;;;;;4967883;28;20445;-84
2023/11/05 12:03:24;;;;;;;4.50;3.10;;;12.60;1.00;;;;;;4967001;28;20185;-84
2023/11/05 12:05:52;;;;;;;5.60;3.37;;;12.60;1.00;;;;;;4951584;28;20491;-85
2023/11/05 12:08:38;;;;;;;5.50;3.53;;;12.70;1.00;;;;;;4972195;28;20440;-84
2023/11/05 12:11:11;;;;;;;5.90;3.57;;;12.70;1.00;;;;;;4972022;28;20783;-83
2023/11/05 12:13:43;;;;;;;12.13;4.73;;;12.70;1.00;;;;;;4974346;28;20428;-85
2023/11/05 12:16:11;;;;;;;7.43;4.57;;;12.70;1.00;;;;;;4954203;28;20476;-85
2023/11/05 12:18:38;;;;;;;10.70;5.67;;;12.80;1.00;;;;;;4969049;28;20444;-84
2023/11/05 12:21:07;;;;;;;13.80;5.17;;;13.00;1.00;;;;;;4972959;28;20448;-83
2023/11/05 12:23:33;;;;;;;12.63;5.87;;;13.40;1.00;;;;;;4974614;28;20471;-84
2023/11/05 12:26:00;;;;;;;10.83;5.40;;;13.70;99.90;;;;;;4975163;28;20479;-83
2023/11/05 12:28:27;;;;;;;7.10;4.23;;;14.10;1.00;;;;;;4975860;28;20436;-85
2023/11/05 12:30:55;;;;;;;5.60;4.20;;;14.60;28.40;;;;;;4975446;28;20958;-82
2023/11/05 12:33:23;;;;;;;8.07;3.80;;;14.80;91.70;;;;;;4973360;28;20444;-84
2023/11/05 12:35:49;;;;;;;6.90;4.50;;;14.80;99.90;;;;;;4970409;28;20457;-84
2023/11/05 12:38:14;;;;;;;10.57;5.00;;;14.70;99.90;;;;;;4972783;28;20451;-84
2023/11/05 12:40:40;;;;;;;10.40;4.27;;;14.50;99.90;;;;;;4975882;28;20956;-85
2023/11/05 12:43:05;;;;;;;7.07;3.53;;;14.30;1.00;;;;;;4969702;28;20240;-84
2023/11/05 12:45:31;;;;;;;8.53;4.30;;;14.10;99.90;;;;;;4975395;28;20196;-84
2023/11/05 12:47:57;;;;;;;7.53;3.67;;;13.90;99.90;;;;;;4964184;28;20643;-84
2023/11/05 12:50:23;;;;;;;7.83;4.70;;;13.90;40.70;;;;;;4976169;28;20187;-84